sensor_id;sensor_type;location;lat;lon;timestamp;P1;durP1;ratioP1;P2;durP2;ratioP2
4634;SDS011;2330;48.158;11.816;2023-06-26T00:00:47;7.53;;;6.83;;
4634;SDS011;2330;48.158;11.816;2023-06-26T00:03:14;8.00;;;7.30;;
4634;SDS011;2330;48.158;11.816;2023-06-26T00:05:41;8.10;;;7.30;;
4634;SDS011;2330;48.158;11.816;2023-06-26T00:08:08;7.70;;;7.00;;
4634;SDS011;2330;48.158;11.816;2023-06-26T00:10:35;8.77;;;8.00;;
4634;SDS011;2330;48.158;11.816;2023-06-26T00:13:02;7.80;;;7.00;;
4634;SDS011;2330;48.158;11.816;2023-06-26T00:15:29;8.67;;;7.77;;
4634;SDS011;2330;48.158;11.816;2023-06-26T00:17:58;7.97;;;7.27;;
4634;SDS011;2330;48.158;11.816;2023-06-26T00:20:25;12.00;;;7.10;;
4634;SDS011;2330;48.158;11.816;2023-06-26T00:22:52;8.30;;;6.83;;
4634;SDS011;2330;48.158;11.816;2023-06-26T00:25:19;12.53;;;7.40;;
4634;SDS011;2330;48.158;11.816;2023-06-26T00:27:46;6.87;;;6.27;;
4634;SDS011;2330;48.158;11.816;2023-06-26T00:30:13;7.67;;;7.03;;
4634;SDS011;2330;48.158;11.816;2023-06-26T00:32:40;9.73;;;7.90;;
4634;SDS011;2330;48.158;11.816;2023-06-26T00:35:07;7.33;;;6.63;;
4634;SDS011;2330;48.158;11.816;2023-06-26T00:37:33;7.70;;;6.90;;
4634;SDS011;2330;48.158;11.816;2023-06-26T00:40:00;8.97;;;7.40;;
4634;SDS011;2330;48.158;11.816;2023-06-26T00:42:27;7.70;;;7.00;;
4634;SDS011;2330;48.158;11.816;2023-06-26T00:44:54;8.00;;;7.30;;
4634;SDS011;2330;48.158;11.816;2023-06-26T00:47:21;8.47;;;7.67;;
4634;SDS011;2330;48.158;11.816;2023-06-26T00:49:48;7.67;;;6.90;;
4634;SDS011;2330;48.158;11.816;2023-06-26T00:52:15;9.30;;;8.50;;
4634;SDS011;2330;48.158;11.816;2023-06-26T00:54:43;7.87;;;7.03;;
4634;SDS011;2330;48.158;11.816;2023-06-26T00:57:09;10.43;;;7.80;;
4634;SDS011;2330;48.158;11.816;2023-06-26T00:59:36;8.57;;;7.70;;
4634;SDS011;2330;48.158;11.816;2023-06-26T01:02:04;7.70;;;6.90;;
4634;SDS011;2330;48.158;11.816;2023-06-26T01:04:31;9.63;;;7.60;;
4634;SDS011;2330;48.158;11.816;2023-06-26T01:06:59;7.50;;;6.77;;
4634;SDS011;2330;48.158;11.816;2023-06-26T01:09:28;8.37;;;7.37;;
4634;SDS011;2330;48.158;11.816;2023-06-26T01:11:56;7.90;;;7.20;;
4634;SDS011;2330;48.158;11.816;2023-06-26T01:14:23;8.23;;;7.43;;
4634;SDS011;2330;48.158;11.816;2023-06-26T01:16:50;8.00;;;7.23;;
4634;SDS011;2330;48.158;11.816;2023-06-26T01:19:25;8.83;;;7.93;;
4634;SDS011;2330;48.158;11.816;2023-06-26T01:22:38;7.33;;;6.73;;
4634;SDS011;2330;48.158;11.816;2023-06-26T01:25:37;8.50;;;7.70;;
4634;SDS011;2330;48.158;11.816;2023-06-26T01:27:52;9.00;;;8.20;;
4634;SDS011;2330;48.158;11.816;2023-06-26T01:30:23;8.77;;;7.97;;
4634;SDS011;2330;48.158;11.816;2023-06-26T01:32:51;8.73;;;7.27;;
4634;SDS011;2330;48.158;11.816;2023-06-26T01:35:18;8.93;;;7.50;;
4634;SDS011;2330;48.158;11.816;2023-06-26T01:37:46;7.97;;;7.27;;
4634;SDS011;2330;48.158;11.816;2023-06-26T01:40:12;7.77;;;7.07;;
4634;SDS011;2330;48.158;11.816;2023-06-26T01:42:39;10.70;;;7.83;;
4634;SDS011;2330;48.158;11.816;2023-06-26T01:45:07;7.60;;;6.90;;
4634;SDS011;2330;48.158;11.816;2023-06-26T01:47:42;7.60;;;7.00;;
4634;SDS011;2330;48.158;11.816;2023-06-26T01:50:17;15.17;;;9.33;;
4634;SDS011;2330;48.158;11.816;2023-06-26T01:53:06;8.40;;;7.63;;
4634;SDS011;2330;48.158;11.816;2023-06-26T01:55:46;8.07;;;7.23;;
4634;SDS011;2330;48.158;11.816;2023-06-26T01:58:16;9.50;;;8.30;;
4634;SDS011;2330;48.158;11.816;2023-06-26T02:00:47;8.20;;;7.50;;
4634;SDS011;2330;48.158;11.816;2023-06-26T02:03:14;8.70;;;7.80;;
4634;SDS011;2330;48.158;11.816;2023-06-26T02:05:41;8.33;;;7.53;;
4634;SDS011;2330;48.158;11.816;2023-06-26T02:08:08;9.07;;;8.10;;
4634;SDS011;2330;48.158;11.816;2023-06-26T02:10:40;8.03;;;7.30;;
4634;SDS011;2330;48.158;11.816;2023-06-26T02:13:07;9.00;;;8.10;;
4634;SDS011;2330;48.158;11.816;2023-06-26T02:15:34;9.37;;;8.47;;
4634;SDS011;2330;48.158;11.816;2023-06-26T02:18:03;8.07;;;7.27;;
4634;SDS011;2330;48.158;11.816;2023-06-26T02:20:30;9.77;;;7.70;;
4634;SDS011;2330;48.158;11.816;2023-06-26T02:22:56;9.53;;;8.33;;
4634;SDS011;2330;48.158;11.816;2023-06-26T02:25:23;8.30;;;7.60;;
4634;SDS011;2330;48.158;11.816;2023-06-26T02:27:50;8.63;;;7.83;;
4634;SDS011;2330;48.158;11.816;2023-06-26T02:30:17;7.50;;;6.80;;
4634;SDS011;2330;48.158;11.816;2023-06-26T02:32:44;12.00;;;7.73;;
4634;SDS011;2330;48.158;11.816;2023-06-26T02:35:11;8.93;;;8.03;;
4634;SDS011;2330;48.158;11.816;2023-06-26T02:37:38;8.60;;;7.80;;
4634;SDS011;2330;48.158;11.816;2023-06-26T02:40:05;8.90;;;8.10;;
4634;SDS011;2330;48.158;11.816;2023-06-26T02:42:34;9.30;;;8.40;;
4634;SDS011;2330;48.158;11.816;2023-06-26T02:45:01;9.63;;;7.60;;
4634;SDS011;2330;48.158;11.816;2023-06-26T02:47:28;7.70;;;7.00;;
4634;SDS011;2330;48.158;11.816;2023-06-26T02:49:55;9.73;;;7.93;;
4634;SDS011;2330;48.158;11.816;2023-06-26T02:52:22;8.00;;;7.30;;
4634;SDS011;2330;48.158;11.816;2023-06-26T02:54:48;7.80;;;7.10;;
4634;SDS011;2330;48.158;11.816;2023-06-26T02:57:15;8.03;;;7.30;;
4634;SDS011;2330;48.158;11.816;2023-06-26T02:59:43;8.30;;;7.43;;
4634;SDS011;2330;48.158;11.816;2023-06-26T03:02:10;7.70;;;6.90;;
4634;SDS011;2330;48.158;11.816;2023-06-26T03:04:37;9.30;;;8.00;;
4634;SDS011;2330;48.158;11.816;2023-06-26T03:07:04;7.97;;;7.27;;
4634;SDS011;2330;48.158;11.816;2023-06-26T03:09:31;9.30;;;8.20;;
4634;SDS011;2330;48.158;11.816;2023-06-26T03:11:58;10.50;;;7.93;;
4634;SDS011;2330;48.158;11.816;2023-06-26T03:14:25;7.80;;;6.77;;
4634;SDS011;2330;48.158;11.816;2023-06-26T03:16:52;8.43;;;7.73;;
4634;SDS011;2330;48.158;11.816;2023-06-26T03:19:22;8.43;;;7.63;;
4634;SDS011;2330;48.158;11.816;2023-06-26T03:21:49;8.20;;;6.33;;
4634;SDS011;2330;48.158;11.816;2023-06-26T03:24:15;9.27;;;8.27;;
4634;SDS011;2330;48.158;11.816;2023-06-26T03:26:42;7.97;;;7.13;;
4634;SDS011;2330;48.158;11.816;2023-06-26T03:29:09;8.97;;;8.17;;
4634;SDS011;2330;48.158;11.816;2023-06-26T03:31:36;8.00;;;7.30;;
4634;SDS011;2330;48.158;11.816;2023-06-26T03:34:03;7.67;;;6.80;;
4634;SDS011;2330;48.158;11.816;2023-06-26T03:36:30;9.43;;;7.50;;
4634;SDS011;2330;48.158;11.816;2023-06-26T03:38:57;8.80;;;8.00;;
4634;SDS011;2330;48.158;11.816;2023-06-26T03:41:24;7.70;;;6.90;;
4634;SDS011;2330;48.158;11.816;2023-06-26T03:43:51;8.57;;;7.77;;
4634;SDS011;2330;48.158;11.816;2023-06-26T03:46:18;8.47;;;7.30;;
4634;SDS011;2330;48.158;11.816;2023-06-26T03:48:45;9.40;;;6.93;;
4634;SDS011;2330;48.158;11.816;2023-06-26T03:51:12;8.20;;;7.40;;
4634;SDS011;2330;48.158;11.816;2023-06-26T03:53:39;7.63;;;6.93;;
4634;SDS011;2330;48.158;11.816;2023-06-26T03:56:05;8.67;;;7.67;;
4634;SDS011;2330;48.158;11.816;2023-06-26T03:58:32;8.90;;;8.03;;
4634;SDS011;2330;48.158;11.816;2023-06-26T04:00:59;16.70;;;7.43;;
4634;SDS011;2330;48.158;11.816;2023-06-26T04:03:26;11.87;;;7.80;;
4634;SDS011;2330;48.158;11.816;2023-06-26T04:05:53;11.60;;;7.67;;
4634;SDS011;2330;48.158;11.816;2023-06-26T04:08:20;8.37;;;7.30;;
4634;SDS011;2330;48.158;11.816;2023-06-26T04:10:47;8.90;;;7.97;;
4634;SDS011;2330;48.158;11.816;2023-06-26T04:13:14;9.30;;;7.90;;
4634;SDS011;2330;48.158;11.816;2023-06-26T04:15:41;9.40;;;7.07;;
4634;SDS011;2330;48.158;11.816;2023-06-26T04:18:08;9.87;;;7.93;;
4634;SDS011;2330;48.158;11.816;2023-06-26T04:20:38;9.40;;;7.63;;
4634;SDS011;2330;48.158;11.816;2023-06-26T04:23:07;9.93;;;7.73;;
4634;SDS011;2330;48.158;11.816;2023-06-26T04:25:33;7.70;;;6.90;;
4634;SDS011;2330;48.158;11.816;2023-06-26T04:28:00;9.67;;;7.60;;
4634;SDS011;2330;48.158;11.816;2023-06-26T04:30:27;8.37;;;7.60;;
4634;SDS011;2330;48.158;11.816;2023-06-26T04:32:54;7.97;;;7.23;;
4634;SDS011;2330;48.158;11.816;2023-06-26T04:35:25;7.03;;;6.40;;
4634;SDS011;2330;48.158;11.816;2023-06-26T04:37:52;7.30;;;6.60;;
4634;SDS011;2330;48.158;11.816;2023-06-26T04:40:19;8.53;;;7.60;;
4634;SDS011;2330;48.158;11.816;2023-06-26T04:42:45;7.63;;;6.93;;
4634;SDS011;2330;48.158;11.816;2023-06-26T04:45:12;7.93;;;7.13;;
4634;SDS011;2330;48.158;11.816;2023-06-26T04:47:39;7.80;;;7.00;;
4634;SDS011;2330;48.158;11.816;2023-06-26T04:50:06;8.93;;;8.03;;
4634;SDS011;2330;48.158;11.816;2023-06-26T04:52:33;9.90;;;7.70;;
4634;SDS011;2330;48.158;11.816;2023-06-26T04:55:00;8.73;;;7.43;;
4634;SDS011;2330;48.158;11.816;2023-06-26T04:57:27;9.23;;;8.43;;
4634;SDS011;2330;48.158;11.816;2023-06-26T04:59:54;7.43;;;6.77;;
4634;SDS011;2330;48.158;11.816;2023-06-26T05:02:20;11.10;;;7.40;;
4634;SDS011;2330;48.158;11.816;2023-06-26T05:04:47;7.43;;;6.73;;
4634;SDS011;2330;48.158;11.816;2023-06-26T05:07:14;8.60;;;7.80;;
4634;SDS011;2330;48.158;11.816;2023-06-26T05:09:41;8.67;;;7.43;;
4634;SDS011;2330;48.158;11.816;2023-06-26T05:12:08;7.97;;;7.17;;
4634;SDS011;2330;48.158;11.816;2023-06-26T05:14:35;6.90;;;6.20;;
4634;SDS011;2330;48.158;11.816;2023-06-26T05:17:01;6.77;;;6.13;;
4634;SDS011;2330;48.158;11.816;2023-06-26T05:19:28;8.17;;;7.37;;
4634;SDS011;2330;48.158;11.816;2023-06-26T05:21:55;8.33;;;7.23;;
4634;SDS011;2330;48.158;11.816;2023-06-26T05:24:22;10.10;;;7.07;;
4634;SDS011;2330;48.158;11.816;2023-06-26T05:26:50;7.53;;;6.07;;
4634;SDS011;2330;48.158;11.816;2023-06-26T05:29:17;6.97;;;6.27;;
4634;SDS011;2330;48.158;11.816;2023-06-26T05:31:44;9.97;;;7.27;;
4634;SDS011;2330;48.158;11.816;2023-06-26T05:34:14;7.10;;;6.40;;
4634;SDS011;2330;48.158;11.816;2023-06-26T05:36:43;13.93;;;6.80;;
4634;SDS011;2330;48.158;11.816;2023-06-26T05:39:10;17.50;;;8.30;;
4634;SDS011;2330;48.158;11.816;2023-06-26T05:41:37;11.30;;;6.73;;
4634;SDS011;2330;48.158;11.816;2023-06-26T05:44:04;6.83;;;6.13;;
4634;SDS011;2330;48.158;11.816;2023-06-26T05:46:30;7.63;;;6.63;;
4634;SDS011;2330;48.158;11.816;2023-06-26T05:48:57;7.53;;;6.83;;
4634;SDS011;2330;48.158;11.816;2023-06-26T05:51:24;7.97;;;7.17;;
4634;SDS011;2330;48.158;11.816;2023-06-26T05:53:51;8.37;;;7.40;;
4634;SDS011;2330;48.158;11.816;2023-06-26T05:56:18;8.30;;;7.50;;
4634;SDS011;2330;48.158;11.816;2023-06-26T05:58:45;11.20;;;6.87;;
4634;SDS011;2330;48.158;11.816;2023-06-26T06:01:13;7.90;;;7.10;;
4634;SDS011;2330;48.158;11.816;2023-06-26T06:03:40;7.80;;;7.07;;
4634;SDS011;2330;48.158;11.816;2023-06-26T06:06:07;8.67;;;6.97;;
4634;SDS011;2330;48.158;11.816;2023-06-26T06:08:34;7.50;;;6.80;;
4634;SDS011;2330;48.158;11.816;2023-06-26T06:11:01;12.00;;;7.40;;
4634;SDS011;2330;48.158;11.816;2023-06-26T06:13:28;9.57;;;7.00;;
4634;SDS011;2330;48.158;11.816;2023-06-26T06:15:55;7.50;;;6.73;;
4634;SDS011;2330;48.158;11.816;2023-06-26T06:18:22;6.70;;;6.00;;
4634;SDS011;2330;48.158;11.816;2023-06-26T06:20:49;7.63;;;6.93;;
4634;SDS011;2330;48.158;11.816;2023-06-26T06:23:16;7.10;;;6.40;;
4634;SDS011;2330;48.158;11.816;2023-06-26T06:25:42;7.77;;;7.07;;
4634;SDS011;2330;48.158;11.816;2023-06-26T06:28:09;7.67;;;6.90;;
4634;SDS011;2330;48.158;11.816;2023-06-26T06:30:36;7.87;;;7.10;;
4634;SDS011;2330;48.158;11.816;2023-06-26T06:33:06;10.17;;;7.77;;
4634;SDS011;2330;48.158;11.816;2023-06-26T06:35:33;7.93;;;7.23;;
4634;SDS011;2330;48.158;11.816;2023-06-26T06:37:59;9.10;;;7.30;;
4634;SDS011;2330;48.158;11.816;2023-06-26T06:40:26;7.13;;;6.47;;
4634;SDS011;2330;48.158;11.816;2023-06-26T06:42:53;7.20;;;6.60;;
4634;SDS011;2330;48.158;11.816;2023-06-26T06:45:20;7.73;;;6.93;;
4634;SDS011;2330;48.158;11.816;2023-06-26T06:47:46;10.83;;;6.90;;
4634;SDS011;2330;48.158;11.816;2023-06-26T06:50:16;7.90;;;7.10;;
4634;SDS011;2330;48.158;11.816;2023-06-26T06:52:44;8.27;;;6.90;;
4634;SDS011;2330;48.158;11.816;2023-06-26T06:55:11;7.30;;;6.60;;
4634;SDS011;2330;48.158;11.816;2023-06-26T06:57:38;13.27;;;6.83;;
4634;SDS011;2330;48.158;11.816;2023-06-26T07:00:10;8.43;;;6.60;;
4634;SDS011;2330;48.158;11.816;2023-06-26T07:02:38;12.93;;;7.40;;
4634;SDS011;2330;48.158;11.816;2023-06-26T07:05:06;12.10;;;8.10;;
4634;SDS011;2330;48.158;11.816;2023-06-26T07:07:33;7.70;;;6.70;;
4634;SDS011;2330;48.158;11.816;2023-06-26T07:10:03;8.50;;;6.40;;
4634;SDS011;2330;48.158;11.816;2023-06-26T07:12:34;9.30;;;7.40;;
4634;SDS011;2330;48.158;11.816;2023-06-26T07:15:01;6.80;;;6.20;;
4634;SDS011;2330;48.158;11.816;2023-06-26T07:17:29;10.63;;;6.63;;
4634;SDS011;2330;48.158;11.816;2023-06-26T07:19:56;8.53;;;7.33;;
4634;SDS011;2330;48.158;11.816;2023-06-26T07:22:23;9.60;;;7.13;;
4634;SDS011;2330;48.158;11.816;2023-06-26T07:24:50;7.13;;;5.53;;
4634;SDS011;2330;48.158;11.816;2023-06-26T07:27:16;7.57;;;6.30;;
4634;SDS011;2330;48.158;11.816;2023-06-26T07:29:46;6.87;;;6.27;;
4634;SDS011;2330;48.158;11.816;2023-06-26T07:32:13;10.13;;;6.70;;
4634;SDS011;2330;48.158;11.816;2023-06-26T07:34:41;7.47;;;6.70;;
4634;SDS011;2330;48.158;11.816;2023-06-26T07:37:08;7.73;;;6.57;;
4634;SDS011;2330;48.158;11.816;2023-06-26T07:39:34;7.27;;;6.10;;
4634;SDS011;2330;48.158;11.816;2023-06-26T07:42:01;7.47;;;6.13;;
4634;SDS011;2330;48.158;11.816;2023-06-26T07:44:28;7.13;;;6.20;;
4634;SDS011;2330;48.158;11.816;2023-06-26T07:46:55;6.90;;;6.20;;
4634;SDS011;2330;48.158;11.816;2023-06-26T07:49:22;7.03;;;6.00;;
4634;SDS011;2330;48.158;11.816;2023-06-26T07:51:49;8.40;;;7.20;;
4634;SDS011;2330;48.158;11.816;2023-06-26T07:54:16;7.17;;;5.70;;
4634;SDS011;2330;48.158;11.816;2023-06-26T07:56:55;7.77;;;5.73;;
4634;SDS011;2330;48.158;11.816;2023-06-26T07:59:27;8.93;;;6.80;;
4634;SDS011;2330;48.158;11.816;2023-06-26T08:01:55;6.70;;;6.10;;
4634;SDS011;2330;48.158;11.816;2023-06-26T08:04:24;7.90;;;6.67;;
4634;SDS011;2330;48.158;11.816;2023-06-26T08:06:54;6.83;;;6.17;;
4634;SDS011;2330;48.158;11.816;2023-06-26T08:09:24;6.23;;;5.63;;
4634;SDS011;2330;48.158;11.816;2023-06-26T08:11:52;8.67;;;6.30;;
4634;SDS011;2330;48.158;11.816;2023-06-26T08:14:23;6.53;;;5.93;;
4634;SDS011;2330;48.158;11.816;2023-06-26T08:16:50;11.43;;;5.80;;
4634;SDS011;2330;48.158;11.816;2023-06-26T08:19:17;6.50;;;5.90;;
4634;SDS011;2330;48.158;11.816;2023-06-26T08:21:44;6.47;;;5.87;;
4634;SDS011;2330;48.158;11.816;2023-06-26T08:24:12;5.87;;;5.37;;
4634;SDS011;2330;48.158;11.816;2023-06-26T08:26:39;7.10;;;6.13;;
4634;SDS011;2330;48.158;11.816;2023-06-26T08:29:06;6.17;;;5.67;;
4634;SDS011;2330;48.158;11.816;2023-06-26T08:31:38;6.10;;;5.60;;
4634;SDS011;2330;48.158;11.816;2023-06-26T08:34:06;11.00;;;6.20;;
4634;SDS011;2330;48.158;11.816;2023-06-26T08:36:34;6.43;;;5.83;;
4634;SDS011;2330;48.158;11.816;2023-06-26T08:39:00;13.57;;;5.27;;
4634;SDS011;2330;48.158;11.816;2023-06-26T08:41:27;5.80;;;5.30;;
4634;SDS011;2330;48.158;11.816;2023-06-26T08:43:54;5.80;;;5.30;;
4634;SDS011;2330;48.158;11.816;2023-06-26T08:46:21;7.83;;;5.77;;
4634;SDS011;2330;48.158;11.816;2023-06-26T08:48:49;6.70;;;5.40;;
4634;SDS011;2330;48.158;11.816;2023-06-26T08:51:24;6.60;;;6.00;;
4634;SDS011;2330;48.158;11.816;2023-06-26T08:53:56;5.83;;;5.20;;
4634;SDS011;2330;48.158;11.816;2023-06-26T08:56:26;8.77;;;5.63;;
4634;SDS011;2330;48.158;11.816;2023-06-26T08:58:58;6.37;;;5.67;;
4634;SDS011;2330;48.158;11.816;2023-06-26T09:01:25;10.20;;;6.10;;
4634;SDS011;2330;48.158;11.816;2023-06-26T09:03:52;7.83;;;5.53;;
4634;SDS011;2330;48.158;11.816;2023-06-26T09:06:19;6.07;;;5.57;;
4634;SDS011;2330;48.158;11.816;2023-06-26T09:08:45;9.27;;;6.80;;
4634;SDS011;2330;48.158;11.816;2023-06-26T09:11:12;7.17;;;6.53;;
4634;SDS011;2330;48.158;11.816;2023-06-26T09:13:39;8.53;;;5.43;;
4634;SDS011;2330;48.158;11.816;2023-06-26T09:16:07;5.43;;;4.90;;
4634;SDS011;2330;48.158;11.816;2023-06-26T09:18:34;6.20;;;5.60;;
4634;SDS011;2330;48.158;11.816;2023-06-26T09:21:07;5.47;;;4.93;;
4634;SDS011;2330;48.158;11.816;2023-06-26T09:23:35;10.50;;;5.40;;
4634;SDS011;2330;48.158;11.816;2023-06-26T09:26:05;12.00;;;6.17;;
4634;SDS011;2330;48.158;11.816;2023-06-26T09:28:32;10.53;;;5.80;;
4634;SDS011;2330;48.158;11.816;2023-06-26T09:31:01;6.23;;;5.50;;
4634;SDS011;2330;48.158;11.816;2023-06-26T09:33:34;6.50;;;5.60;;
4634;SDS011;2330;48.158;11.816;2023-06-26T09:36:23;5.80;;;5.23;;
4634;SDS011;2330;48.158;11.816;2023-06-26T09:38:51;5.30;;;4.80;;
4634;SDS011;2330;48.158;11.816;2023-06-26T09:41:18;17.03;;;5.27;;
4634;SDS011;2330;48.158;11.816;2023-06-26T09:43:45;8.70;;;4.30;;
4634;SDS011;2330;48.158;11.816;2023-06-26T09:46:16;5.97;;;5.03;;
4634;SDS011;2330;48.158;11.816;2023-06-26T09:48:50;6.07;;;4.73;;
4634;SDS011;2330;48.158;11.816;2023-06-26T09:51:29;7.80;;;4.73;;
4634;SDS011;2330;48.158;11.816;2023-06-26T09:54:02;5.80;;;4.97;;
4634;SDS011;2330;48.158;11.816;2023-06-26T09:56:30;5.10;;;4.60;;
4634;SDS011;2330;48.158;11.816;2023-06-26T09:58:59;6.00;;;5.40;;
4634;SDS011;2330;48.158;11.816;2023-06-26T10:01:27;4.97;;;4.50;;
4634;SDS011;2330;48.158;11.816;2023-06-26T10:03:55;5.23;;;4.70;;
4634;SDS011;2330;48.158;11.816;2023-06-26T10:06:36;6.27;;;5.30;;
4634;SDS011;2330;48.158;11.816;2023-06-26T10:09:05;4.90;;;4.50;;
4634;SDS011;2330;48.158;11.816;2023-06-26T10:11:39;5.17;;;4.77;;
4634;SDS011;2330;48.158;11.816;2023-06-26T10:14:09;19.73;;;6.03;;
4634;SDS011;2330;48.158;11.816;2023-06-26T10:16:44;8.70;;;4.53;;
4634;SDS011;2330;48.158;11.816;2023-06-26T10:19:13;4.90;;;4.50;;
4634;SDS011;2330;48.158;11.816;2023-06-26T10:21:42;4.87;;;4.10;;
4634;SDS011;2330;48.158;11.816;2023-06-26T10:24:10;5.57;;;4.70;;
4634;SDS011;2330;48.158;11.816;2023-06-26T10:26:42;4.90;;;4.50;;
4634;SDS011;2330;48.158;11.816;2023-06-26T10:29:11;4.67;;;4.27;;
4634;SDS011;2330;48.158;11.816;2023-06-26T10:31:40;7.37;;;3.90;;
4634;SDS011;2330;48.158;11.816;2023-06-26T10:34:11;5.10;;;4.70;;
4634;SDS011;2330;48.158;11.816;2023-06-26T10:36:39;4.30;;;4.00;;
4634;SDS011;2330;48.158;11.816;2023-06-26T10:39:08;4.77;;;4.37;;
4634;SDS011;2330;48.158;11.816;2023-06-26T10:41:39;5.50;;;4.00;;
4634;SDS011;2330;48.158;11.816;2023-06-26T10:44:26;6.63;;;5.10;;
4634;SDS011;2330;48.158;11.816;2023-06-26T10:46:53;5.30;;;4.80;;
4634;SDS011;2330;48.158;11.816;2023-06-26T10:49:25;5.57;;;3.73;;
4634;SDS011;2330;48.158;11.816;2023-06-26T10:51:54;4.20;;;3.80;;
4634;SDS011;2330;48.158;11.816;2023-06-26T10:54:27;4.40;;;4.10;;
4634;SDS011;2330;48.158;11.816;2023-06-26T10:56:55;4.67;;;4.00;;
4634;SDS011;2330;48.158;11.816;2023-06-26T10:59:27;3.97;;;3.67;;
4634;SDS011;2330;48.158;11.816;2023-06-26T11:01:58;4.90;;;4.50;;
4634;SDS011;2330;48.158;11.816;2023-06-26T11:04:43;4.73;;;4.33;;
4634;SDS011;2330;48.158;11.816;2023-06-26T11:07:24;4.17;;;3.83;;
4634;SDS011;2330;48.158;11.816;2023-06-26T11:12:39;4.03;;;3.73;;
4634;SDS011;2330;48.158;11.816;2023-06-26T11:15:09;5.60;;;3.63;;
4634;SDS011;2330;48.158;11.816;2023-06-26T11:17:45;4.47;;;3.87;;
4634;SDS011;2330;48.158;11.816;2023-06-26T11:20:14;5.70;;;3.77;;
4634;SDS011;2330;48.158;11.816;2023-06-26T11:22:44;4.60;;;4.20;;
4634;SDS011;2330;48.158;11.816;2023-06-26T11:25:11;4.43;;;3.43;;
4634;SDS011;2330;48.158;11.816;2023-06-26T11:27:42;8.10;;;4.40;;
4634;SDS011;2330;48.158;11.816;2023-06-26T11:30:10;5.37;;;3.93;;
4634;SDS011;2330;48.158;11.816;2023-06-26T11:32:48;4.67;;;3.80;;
4634;SDS011;2330;48.158;11.816;2023-06-26T11:35:24;4.40;;;3.83;;
4634;SDS011;2330;48.158;11.816;2023-06-26T11:37:56;3.80;;;3.50;;
4634;SDS011;2330;48.158;11.816;2023-06-26T11:40:31;4.50;;;4.10;;
4634;SDS011;2330;48.158;11.816;2023-06-26T11:43:00;11.00;;;4.57;;
4634;SDS011;2330;48.158;11.816;2023-06-26T11:45:30;3.77;;;3.47;;
4634;SDS011;2330;48.158;11.816;2023-06-26T11:48:00;5.53;;;3.90;;
4634;SDS011;2330;48.158;11.816;2023-06-26T11:50:27;3.53;;;3.23;;
4634;SDS011;2330;48.158;11.816;2023-06-26T11:52:58;11.00;;;4.80;;
4634;SDS011;2330;48.158;11.816;2023-06-26T11:55:25;4.17;;;3.53;;
4634;SDS011;2330;48.158;11.816;2023-06-26T11:57:53;5.30;;;4.30;;
4634;SDS011;2330;48.158;11.816;2023-06-26T12:00:21;3.60;;;3.33;;
4634;SDS011;2330;48.158;11.816;2023-06-26T12:02:48;7.90;;;4.20;;
4634;SDS011;2330;48.158;11.816;2023-06-26T12:05:16;9.30;;;4.07;;
4634;SDS011;2330;48.158;11.816;2023-06-26T12:07:44;10.17;;;4.67;;
4634;SDS011;2330;48.158;11.816;2023-06-26T12:10:13;4.17;;;3.70;;
4634;SDS011;2330;48.158;11.816;2023-06-26T12:12:41;4.13;;;3.73;;
4634;SDS011;2330;48.158;11.816;2023-06-26T12:15:10;6.07;;;4.70;;
4634;SDS011;2330;48.158;11.816;2023-06-26T12:17:39;5.20;;;4.00;;
4634;SDS011;2330;48.158;11.816;2023-06-26T12:20:16;4.20;;;3.90;;
4634;SDS011;2330;48.158;11.816;2023-06-26T12:22:50;5.77;;;5.20;;
4634;SDS011;2330;48.158;11.816;2023-06-26T12:25:23;6.70;;;4.50;;
4634;SDS011;2330;48.158;11.816;2023-06-26T12:27:50;6.43;;;4.70;;
4634;SDS011;2330;48.158;11.816;2023-06-26T12:30:17;4.30;;;4.00;;
4634;SDS011;2330;48.158;11.816;2023-06-26T12:32:44;6.47;;;4.50;;
4634;SDS011;2330;48.158;11.816;2023-06-26T12:35:14;4.83;;;4.43;;
4634;SDS011;2330;48.158;11.816;2023-06-26T12:37:42;4.50;;;4.10;;
4634;SDS011;2330;48.158;11.816;2023-06-26T12:40:17;4.77;;;4.37;;
4634;SDS011;2330;48.158;11.816;2023-06-26T12:42:45;5.40;;;4.90;;
4634;SDS011;2330;48.158;11.816;2023-06-26T12:45:13;5.23;;;4.83;;
4634;SDS011;2330;48.158;11.816;2023-06-26T12:48:11;4.47;;;4.07;;
4634;SDS011;2330;48.158;11.816;2023-06-26T12:50:45;7.70;;;4.47;;
4634;SDS011;2330;48.158;11.816;2023-06-26T12:53:12;6.90;;;4.40;;
4634;SDS011;2330;48.158;11.816;2023-06-26T12:55:40;6.30;;;5.70;;
4634;SDS011;2330;48.158;11.816;2023-06-26T12:58:07;5.77;;;5.13;;
4634;SDS011;2330;48.158;11.816;2023-06-26T13:00:36;5.07;;;4.57;;
4634;SDS011;2330;48.158;11.816;2023-06-26T13:03:04;5.67;;;4.50;;
4634;SDS011;2330;48.158;11.816;2023-06-26T13:05:33;5.30;;;4.60;;
4634;SDS011;2330;48.158;11.816;2023-06-26T13:08:00;7.23;;;4.63;;
4634;SDS011;2330;48.158;11.816;2023-06-26T13:10:27;4.83;;;4.30;;
4634;SDS011;2330;48.158;11.816;2023-06-26T13:12:55;9.40;;;5.23;;
4634;SDS011;2330;48.158;11.816;2023-06-26T13:15:22;5.23;;;4.73;;
4634;SDS011;2330;48.158;11.816;2023-06-26T13:17:49;7.17;;;4.90;;
4634;SDS011;2330;48.158;11.816;2023-06-26T13:20:15;12.40;;;4.80;;
4634;SDS011;2330;48.158;11.816;2023-06-26T13:22:42;6.60;;;4.70;;
4634;SDS011;2330;48.158;11.816;2023-06-26T13:25:09;4.93;;;4.50;;
4634;SDS011;2330;48.158;11.816;2023-06-26T13:27:38;5.47;;;5.03;;
4634;SDS011;2330;48.158;11.816;2023-06-26T13:30:04;5.13;;;4.60;;
4634;SDS011;2330;48.158;11.816;2023-06-26T13:32:32;5.30;;;4.90;;
4634;SDS011;2330;48.158;11.816;2023-06-26T13:34:59;6.90;;;5.20;;
4634;SDS011;2330;48.158;11.816;2023-06-26T13:37:26;5.73;;;5.07;;
4634;SDS011;2330;48.158;11.816;2023-06-26T13:39:52;7.73;;;4.83;;
4634;SDS011;2330;48.158;11.816;2023-06-26T13:42:19;8.40;;;5.70;;
4634;SDS011;2330;48.158;11.816;2023-06-26T13:44:47;6.13;;;5.10;;
4634;SDS011;2330;48.158;11.816;2023-06-26T13:47:27;5.57;;;5.10;;
4634;SDS011;2330;48.158;11.816;2023-06-26T13:49:55;7.80;;;5.53;;
4634;SDS011;2330;48.158;11.816;2023-06-26T13:52:21;5.50;;;5.00;;
4634;SDS011;2330;48.158;11.816;2023-06-26T13:54:48;7.63;;;4.83;;
4634;SDS011;2330;48.158;11.816;2023-06-26T13:57:15;6.83;;;5.07;;
4634;SDS011;2330;48.158;11.816;2023-06-26T13:59:42;18.83;;;7.03;;
4634;SDS011;2330;48.158;11.816;2023-06-26T14:02:11;5.30;;;4.73;;
4634;SDS011;2330;48.158;11.816;2023-06-26T14:04:38;7.07;;;5.60;;
4634;SDS011;2330;48.158;11.816;2023-06-26T14:07:06;6.40;;;5.90;;
4634;SDS011;2330;48.158;11.816;2023-06-26T14:09:33;7.73;;;6.00;;
4634;SDS011;2330;48.158;11.816;2023-06-26T14:12:00;6.17;;;5.57;;
4634;SDS011;2330;48.158;11.816;2023-06-26T14:14:27;5.83;;;5.33;;
4634;SDS011;2330;48.158;11.816;2023-06-26T14:16:54;6.73;;;5.30;;
4634;SDS011;2330;48.158;11.816;2023-06-26T14:19:21;10.47;;;5.20;;
4634;SDS011;2330;48.158;11.816;2023-06-26T14:21:47;5.77;;;5.37;;
4634;SDS011;2330;48.158;11.816;2023-06-26T14:24:14;5.00;;;4.60;;
4634;SDS011;2330;48.158;11.816;2023-06-26T14:26:41;5.70;;;5.17;;
4634;SDS011;2330;48.158;11.816;2023-06-26T14:29:08;5.60;;;5.10;;
4634;SDS011;2330;48.158;11.816;2023-06-26T14:31:35;9.30;;;5.00;;
4634;SDS011;2330;48.158;11.816;2023-06-26T14:34:01;7.73;;;5.30;;
4634;SDS011;2330;48.158;11.816;2023-06-26T14:36:29;8.50;;;5.53;;
4634;SDS011;2330;48.158;11.816;2023-06-26T14:38:58;5.03;;;4.40;;
4634;SDS011;2330;48.158;11.816;2023-06-26T14:41:26;5.63;;;5.10;;
4634;SDS011;2330;48.158;11.816;2023-06-26T14:43:54;5.37;;;4.70;;
4634;SDS011;2330;48.158;11.816;2023-06-26T14:46:21;5.93;;;5.33;;
4634;SDS011;2330;48.158;11.816;2023-06-26T14:48:48;5.97;;;5.20;;
4634;SDS011;2330;48.158;11.816;2023-06-26T14:51:17;5.93;;;5.47;;
4634;SDS011;2330;48.158;11.816;2023-06-26T14:53:44;6.40;;;5.40;;
4634;SDS011;2330;48.158;11.816;2023-06-26T14:56:11;5.50;;;5.00;;
4634;SDS011;2330;48.158;11.816;2023-06-26T14:58:38;5.53;;;5.03;;
4634;SDS011;2330;48.158;11.816;2023-06-26T15:01:05;5.80;;;5.30;;
4634;SDS011;2330;48.158;11.816;2023-06-26T15:03:32;5.60;;;5.10;;
4634;SDS011;2330;48.158;11.816;2023-06-26T15:05:59;6.70;;;5.00;;
4634;SDS011;2330;48.158;11.816;2023-06-26T15:08:27;12.77;;;5.23;;
4634;SDS011;2330;48.158;11.816;2023-06-26T15:10:54;6.17;;;5.23;;